Time;durP1;ratioP1;P1;durP2;ratioP2;P2;SDS_P1;SDS_P2;PMS_P1;PMS_P2;Temp;Humidity;BMP_temperature;BMP_pressure;BME280_temperature;BME280_humidity;BME280_pressure;Samples;Min_cycle;Max_cycle;Signal;HPM_P1;HPM_P2
2022/10/30 00:00:01;;;;;;;;;;;;;;;;;;940897;27;19946;-74
2022/10/30 00:00:31;;;;;;;;;;;;;;;;;;940754;27;20220;-74
2022/10/30 00:01:04;;;;;;;;;;;;;;;;;;940793;27;19915;-75
2022/10/30 00:01:35;;;;;;;;;;;;;;;;;;940886;27;19907;-74
2022/10/30 00:02:06;;;;;;;;;;;;;;;;;;940884;27;19919;-75
2022/10/30 00:02:36;;;;;;;;;;;;;;;;;;941036;27;19959;-75
2022/10/30 00:03:12;;;;;;;;;;;;;;;;;;940918;27;20209;-74
2022/10/30 00:03:42;;;;;;;;;;;;;;;;;;940810;27;19907;-74
2022/10/30 00:04:16;;;;;;;;;;;;;;;;;;940776;27;19907;-75
2022/10/30 00:04:46;;;;;;;;;;;;;;;;;;940762;27;20144;-75
2022/10/30 00:05:20;;;;;;;;;;;;;;;;;;940818;27;19907;-75
2022/10/30 00:05:51;;;;;;;;;;;;;;;;;;940809;27;19908;-74
2022/10/30 00:06:24;;;;;;;;;;;;;;;;;;940868;27;19907;-74
2022/10/30 00:06:54;;;;;;;;;;;;;;;;;;940817;27;20155;-74
2022/10/30 00:07:25;;;;;;;;;;;;;;;;;;940850;27;19907;-75
2022/10/30 00:07:56;;;;;;;;;;;;;;;;;;940753;27;20217;-74
2022/10/30 00:08:29;;;;;;;;;;;;;;;;;;940745;27;20147;-74
2022/10/30 00:09:00;;;;;;;;;;;;;;;;;;940769;27;19908;-75
2022/10/30 00:09:30;;;;;;;;;;;;;;;;;;940947;27;20156;-75
2022/10/30 00:10:01;;;;;;;;;;;;;;;;;;940959;27;19921;-75
2022/10/30 00:10:36;;;;;;;;;;;;;;;;;;940790;27;19918;-75
2022/10/30 00:11:08;;;;;;;;;;;;;;;;;;941080;27;19907;-74
2022/10/30 00:11:39;;;;;;;;;;;;;;;;;;941013;27;20243;-74
2022/10/30 00:12:12;;;;;;;;;;;;;;;;;;941141;27;19920;-75
2022/10/30 00:12:43;;;;;;;;;;;;;;;;;;941086;27;19907;-74
2022/10/30 00:13:13;;;;;;;;;;;;;;;;;;940978;27;19907;-75
2022/10/30 00:13:47;;;;;;;;;;;;;;;;;;941022;27;19935;-77
2022/10/30 00:14:17;;;;;;;;;;;;;;;;;;941000;27;19947;-75
2022/10/30 00:14:48;;;;;;;;;;;;;;;;;;941038;27;19907;-74
2022/10/30 00:15:19;;;;;;;;;;;;;;;;;;940975;27;19916;-74
2022/10/30 00:15:53;;;;;;;;;;;;;;;;;;941041;27;19922;-75
2022/10/30 00:16:23;;;;;;;;;;;;;;;;;;940951;27;19907;-75
2022/10/30 00:16:54;;;;;;;;;;;;;;;;;;940958;27;19907;-75
2022/10/30 00:17:25;;;;;;;;;;;;;;;;;;940941;27;19960;-74
2022/10/30 00:17:58;;;;;;;;;;;;;;;;;;940965;27;19912;-76
2022/10/30 00:18:29;;;;;;;;;;;;;;;;;;941064;27;19907;-76
2022/10/30 00:19:00;;;;;;;;;;;;;;;;;;940966;27;19907;-74
2022/10/30 00:19:33;;;;;;;;;;;;;;;;;;941040;27;19911;-76
2022/10/30 00:20:05;;;;;;;;;;;;;;;;;;940963;27;19908;-75
2022/10/30 00:20:38;;;;;;;;;;;;;;;;;;940926;27;20155;-73
2022/10/30 00:21:10;;;;;;;;;;;;;;;;;;941106;27;19907;-75
2022/10/30 00:21:43;;;;;;;;;;;;;;;;;;941132;27;19919;-75
2022/10/30 00:22:14;;;;;;;;;;;;;;;;;;941122;27;20243;-75
2022/10/30 00:22:45;;;;;;;;;;;;;;;;;;940909;27;19921;-74
2022/10/30 00:23:19;;;;;;;;;;;;;;;;;;940725;27;19965;-74
2022/10/30 00:23:50;;;;;;;;;;;;;;;;;;940841;27;20238;-75
2022/10/30 00:24:21;;;;;;;;;;;;;;;;;;940897;27;19927;-74
2022/10/30 00:24:54;;;;;;;;;;;;;;;;;;940786;27;20243;-76
2022/10/30 00:25:25;;;;;;;;;;;;;;;;;;940675;27;19918;-74
2022/10/30 00:25:55;;;;;;;;;;;;;;;;;;940914;27;20263;-74
2022/10/30 00:26:30;;;;;;;;;;;;;;;;;;940779;27;20186;-73
2022/10/30 00:27:01;;;;;;;;;;;;;;;;;;940746;27;19907;-74
2022/10/30 00:27:32;;;;;;;;;;;;;;;;;;940749;27;19959;-75
2022/10/30 00:28:05;;;;;;;;;;;;;;;;;;940803;27;19912;-75
2022/10/30 00:28:36;;;;;;;;;;;;;;;;;;940822;27;19908;-75
2022/10/30 00:29:06;;;;;;;;;;;;;;;;;;940936;27;19918;-74
2022/10/30 00:29:37;;;;;;;;;;;;;;;;;;940970;27;19915;-75
2022/10/30 00:30:11;;;;;;;;;;;;;;;;;;941099;27;20203;-75
2022/10/30 00:30:42;;;;;;;;;;;;;;;;;;940870;27;19915;-74
2022/10/30 00:31:13;;;;;;;;;;;;;;;;;;941044;27;19967;-75
2022/10/30 00:31:46;;;;;;;;;;;;;;;;;;940907;27;19911;-75
2022/10/30 00:32:16;;;;;;;;;;;;;;;;;;941118;27;19918;-75
2022/10/30 00:32:47;;;;;;;;;;;;;;;;;;941084;27;19907;-74
2022/10/30 00:33:20;;;;;;;;;;;;;;;;;;941047;27;19907;-74
2022/10/30 00:33:52;;;;;;;;;;;;;;;;;;940933;27;20205;-74
2022/10/30 00:34:22;;;;;;;;;;;;;;;;;;941087;27;19908;-75
2022/10/30 00:34:55;;;;;;;;;;;;;;;;;;941027;27;19908;-75
2022/10/30 00:35:26;;;;;;;;;;;;;;;;;;940962;27;19907;-74
2022/10/30 00:36:00;;;;;;;;;;;;;;;;;;940781;27;19918;-75
2022/10/30 00:36:33;;;;;;;;;;;;;;;;;;940753;27;19911;-75
2022/10/30 00:37:04;;;;;;;;;;;;;;;;;;940843;27;19907;-75
2022/10/30 00:37:34;;;;;;;;;;;;;;;;;;940813;27;19908;-75
2022/10/30 00:38:07;;;;;;;;;;;;;;;;;;940779;27;19916;-76
2022/10/30 00:38:38;;;;;;;;;;;;;;;;;;940712;27;19911;-75
2022/10/30 00:39:09;;;;;;;;;;;;;;;;;;940723;27;20220;-75
2022/10/30 00:39:42;;;;;;;;;;;;;;;;;;940720;27;19915;-75
2022/10/30 00:40:14;;;;;;;;;;;;;;;;;;940852;27;19907;-75
2022/10/30 00:40:45;;;;;;;;;;;;;;;;;;940766;27;19908;-74
2022/10/30 00:41:20;;;;;;;;;;;;;;;;;;940752;27;19908;-74
2022/10/30 00:41:50;;;;;;;;;;;;;;;;;;940726;27;19907;-75
2022/10/30 00:42:21;;;;;;;;;;;;;;;;;;940745;27;19911;-75
2022/10/30 00:42:54;;;;;;;;;;;;;;;;;;940653;27;19964;-75
2022/10/30 00:43:35;;;;;;;;;;;;;;;;;;940670;27;19907;-75
2022/10/30 00:44:20;;;;;;;;;;;;;;;;;;940685;27;19955;-75
2022/10/30 00:44:54;;;;;;;;;;;;;;;;;;940473;27;19915;-74
2022/10/30 00:45:24;;;;;;;;;;;;;;;;;;940619;27;19907;-74
2022/10/30 00:45:57;;;;;;;;;;;;;;;;;;940750;27;19907;-74
2022/10/30 00:46:32;;;;;;;;;;;;;;;;;;940701;27;19922;-75
2022/10/30 00:47:05;;;;;;;;;;;;;;;;;;940679;27;19911;-75
2022/10/30 00:47:38;;;;;;;;;;;;;;;;;;940636;27;20386;-74
2022/10/30 00:48:11;;;;;;;;;;;;;;;;;;940683;27;19907;-74
2022/10/30 00:48:44;;;;;;;;;;;;;;;;;;940712;27;19934;-75
2022/10/30 00:49:15;;;;;;;;;;;;;;;;;;940658;27;20155;-74
2022/10/30 00:49:58;;;;;;;;;;;;;;;;;;940673;27;19992;-75
2022/10/30 00:50:33;;;;;;;;;;;;;;;;;;940667;27;20033;-75
2022/10/30 00:51:09;;;;;;;;;;;;;;;;;;940579;27;19907;-75
2022/10/30 00:51:41;;;;;;;;;;;;;;;;;;940767;27;20285;-74
2022/10/30 00:52:14;;;;;;;;;;;;;;;;;;940766;27;19911;-75
2022/10/30 00:52:53;;;;;;;;;;;;;;;;;;940703;27;19907;-74
2022/10/30 00:53:27;;;;;;;;;;;;;;;;;;940703;27;19964;-75
2022/10/30 00:53:59;;;;;;;;;;;;;;;;;;940804;27;19907;-75
2022/10/30 00:54:31;;;;;;;;;;;;;;;;;;940751;27;19914;-74
2022/10/30 00:55:07;;;;;;;;;;;;;;;;;;940852;27;19919;-75
2022/10/30 00:55:40;;;;;;;;;;;;;;;;;;940680;27;19907;-74
2022/10/30 00:56:11;;;;;;;;;;;;;;;;;;940736;27;19926;-73
2022/10/30 00:56:45;;;;;;;;;;;;;;;;;;940689;27;20238;-75
2022/10/30 00:57:17;;;;;;;;;;;;;;;;;;940756;27;20251;-75
2022/10/30 00:57:49;;;;;;;;;;;;;;;;;;940704;27;19953;-74
2022/10/30 00:58:29;;;;;;;;;;;;;;;;;;940655;27;19915;-74
2022/10/30 00:59:01;;;;;;;;;;;;;;;;;;940665;27;19907;-75
2022/10/30 00:59:33;;;;;;;;;;;;;;;;;;941048;27;19972;-76
2022/10/30 01:00:08;;;;;;;;;;;;;;;;;;941327;27;19911;-75
2022/10/30 01:00:39;;;;;;;;;;;;;;;;;;941015;27;19946;-74
2022/10/30 01:01:16;;;;;;;;;;;;;;;;;;941163;27;19907;-74
2022/10/30 01:01:49;;;;;;;;;;;;;;;;;;941171;27;19911;-74
2022/10/30 01:02:21;;;;;;;;;;;;;;;;;;941245;27;19907;-74
2022/10/30 01:02:52;;;;;;;;;;;;;;;;;;941139;27;19918;-75
2022/10/30 01:03:26;;;;;;;;;;;;;;;;;;941208;27;19915;-75
2022/10/30 01:03:59;;;;;;;;;;;;;;;;;;941228;27;19911;-79
2022/10/30 01:04:32;;;;;;;;;;;;;;;;;;941230;27;19907;-75
2022/10/30 01:05:05;;;;;;;;;;;;;;;;;;941281;27;20212;-74
2022/10/30 01:05:37;;;;;;;;;;;;;;;;;;941187;27;19908;-75
2022/10/30 01:06:12;;;;;;;;;;;;;;;;;;941185;27;20159;-74
2022/10/30 01:06:50;;;;;;;;;;;;;;;;;;941127;27;19907;-74
2022/10/30 01:07:21;;;;;;;;;;;;;;;;;;941174;27;20217;-75
2022/10/30 01:07:52;;;;;;;;;;;;;;;;;;941197;27;19907;-74
2022/10/30 01:08:25;;;;;;;;;;;;;;;;;;941187;27;19908;-75
2022/10/30 01:08:56;;;;;;;;;;;;;;;;;;941120;27;19918;-73
2022/10/30 01:09:27;;;;;;;;;;;;;;;;;;941203;27;19918;-75
2022/10/30 01:10:00;;;;;;;;;;;;;;;;;;941325;27;19957;-75
2022/10/30 01:10:31;;;;;;;;;;;;;;;;;;941091;27;19907;-75
2022/10/30 01:11:03;;;;;;;;;;;;;;;;;;941208;27;19908;-75
2022/10/30 01:11:34;;;;;;;;;;;;;;;;;;941169;27;19907;-74
2022/10/30 01:12:07;;;;;;;;;;;;;;;;;;941264;27;20143;-75
2022/10/30 01:12:38;;;;;;;;;;;;;;;;;;941157;27;19918;-75
2022/10/30 01:13:09;;;;;;;;;;;;;;;;;;941186;27;19907;-75
2022/10/30 01:13:44;;;;;;;;;;;;;;;;;;941278;27;20216;-74
2022/10/30 01:14:18;;;;;;;;;;;;;;;;;;941161;27;19915;-75
2022/10/30 01:14:50;;;;;;;;;;;;;;;;;;941236;27;19934;-75
2022/10/30 01:15:27;;;;;;;;;;;;;;;;;;941199;27;19949;-75
2022/10/30 01:16:06;;;;;;;;;;;;;;;;;;941193;27;20159;-74
2022/10/30 01:16:43;;;;;;;;;;;;;;;;;;941044;27;19915;-74
2022/10/30 01:17:25;;;;;;;;;;;;;;;;;;941005;27;19965;-75
2022/10/30 01:18:02;;;;;;;;;;;;;;;;;;941126;27;19908;-75
2022/10/30 01:18:40;;;;;;;;;;;;;;;;;;941104;27;20218;-75
2022/10/30 01:19:15;;;;;;;;;;;;;;;;;;941232;27;19907;-75
2022/10/30 01:19:51;;;;;;;;;;;;;;;;;;941191;27;20000;-75
2022/10/30 01:20:35;;;;;;;;;;;;;;;;;;941058;27;19908;-74
2022/10/30 01:21:13;;;;;;;;;;;;;;;;;;941169;27;19907;-75
2022/10/30 01:21:50;;;;;;;;;;;;;;;;;;941109;27;19907;-74
2022/10/30 01:22:31;;;;;;;;;;;;;;;;;;941014;27;19907;-74
2022/10/30 01:23:09;;;;;;;;;;;;;;;;;;941097;27;19907;-75
2022/10/30 01:23:46;;;;;;;;;;;;;;;;;;941240;27;19912;-74
2022/10/30 01:24:30;;;;;;;;;;;;;;;;;;941215;27;19919;-75
2022/10/30 01:25:06;;;;;;;;;;;;;;;;;;941113;27;19918;-75
2022/10/30 01:25:48;;;;;;;;;;;;;;;;;;940986;27;19923;-75
2022/10/30 01:26:25;;;;;;;;;;;;;;;;;;941102;27;19927;-75
2022/10/30 01:27:02;;;;;;;;;;;;;;;;;;941103;27;19907;-74
2022/10/30 01:27:41;;;;;;;;;;;;;;;;;;941140;27;19926;-75
2022/10/30 01:28:21;;;;;;;;;;;;;;;;;;941095;27;19918;-74
2022/10/30 01:28:58;;;;;;;;;;;;;;;;;;941090;27;19907;-75
2022/10/30 01:29:37;;;;;;;;;;;;;;;;;;941029;27;19967;-74
2022/10/30 01:30:19;;;;;;;;;;;;;;;;;;941122;27;19907;-75
2022/10/30 01:31:02;;;;;;;;;;;;;;;;;;941184;27;19918;-74
2022/10/30 01:31:40;;;;;;;;;;;;;;;;;;941162;27;19915;-75
2022/10/30 01:32:25;;;;;;;;;;;;;;;;;;941046;27;19967;-74
2022/10/30 01:33:06;;;;;;;;;;;;;;;;;;941041;27;19961;-74
2022/10/30 01:33:43;;;;;;;;;;;;;;;;;;941081;27;19911;-74
2022/10/30 01:34:17;;;;;;;;;;;;;;;;;;941073;27;19912;-74
2022/10/30 01:34:56;;;;;;;;;;;;;;;;;;941166;27;20213;-74
2022/10/30 01:35:33;;;;;;;;;;;;;;;;;;941175;27;20437;-74
2022/10/30 01:36:07;;;;;;;;;;;;;;;;;;941155;27;19912;-75
2022/10/30 01:36:47;;;;;;;;;;;;;;;;;;941065;27;19911;-74
2022/10/30 01:37:20;;;;;;;;;;;;;;;;;;941089;27;19919;-75
2022/10/30 01:37:53;;;;;;;;;;;;;;;;;;941157;27;19929;-74
2022/10/30 01:38:30;;;;;;;;;;;;;;;;;;941136;27;20129;-75
2022/10/30 01:39:03;;;;;;;;;;;;;;;;;;941069;27;19908;-74
2022/10/30 01:39:36;;;;;;;;;;;;;;;;;;941123;27;19918;-74
2022/10/30 01:40:11;;;;;;;;;;;;;;;;;;941113;27;19907;-74
2022/10/30 01:40:42;;;;;;;;;;;;;;;;;;941209;27;19914;-74
2022/10/30 01:41:13;;;;;;;;;;;;;;;;;;941074;27;19911;-75
2022/10/30 01:41:46;;;;;;;;;;;;;;;;;;941053;27;20266;-75
2022/10/30 01:42:32;;;;;;;;;;;;;;;;;;941131;27;19907;-74
2022/10/30 01:43:02;;;;;;;;;;;;;;;;;;941001;27;19967;-75
2022/10/30 01:43:36;;;;;;;;;;;;;;;;;;941205;27;19917;-73
2022/10/30 01:44:09;;;;;;;;;;;;;;;;;;941039;27;19922;-75
2022/10/30 01:44:40;;;;;;;;;;;;;;;;;;941097;27;19907;-75
2022/10/30 01:45:13;;;;;;;;;;;;;;;;;;941137;27;19999;-74
2022/10/30 01:45:57;;;;;;;;;;;;;;;;;;941021;27;20414;-74
2022/10/30 01:46:38;;;;;;;;;;;;;;;;;;941058;27;20132;-75
2022/10/30 01:47:15;;;;;;;;;;;;;;;;;;941071;27;19914;-75
2022/10/30 01:47:54;;;;;;;;;;;;;;;;;;941068;27;20109;-75
2022/10/30 01:48:42;;;;;;;;;;;;;;;;;;941115;27;20251;-75
2022/10/30 01:49:29;;;;;;;;;;;;;;;;;;940896;27;20214;-74
2022/10/30 01:50:16;;;;;;;;;;;;;;;;;;941100;27;20009;-74
2022/10/30 01:50:52;;;;;;;;;;;;;;;;;;941055;27;19918;-75
2022/10/30 01:51:30;;;;;;;;;;;;;;;;;;941081;27;19907;-74
2022/10/30 01:52:10;;;;;;;;;;;;;;;;;;940958;27;20053;-75
2022/10/30 01:52:45;;;;;;;;;;;;;;;;;;941064;27;19907;-74
2022/10/30 01:53:19;;;;;;;;;;;;;;;;;;941010;27;19907;-74
2022/10/30 01:53:58;;;;;;;;;;;;;;;;;;941106;27;19984;-75
2022/10/30 01:54:31;;;;;;;;;;;;;;;;;;941008;27;19907;-73
2022/10/30 01:55:05;;;;;;;;;;;;;;;;;;941053;27;19908;-74
2022/10/30 01:55:43;;;;;;;;;;;;;;;;;;941044;27;19964;-75
2022/10/30 01:56:21;;;;;;;;;;;;;;;;;;941017;27;19908;-74
2022/10/30 01:56:56;;;;;;;;;;;;;;;;;;941013;27;19907;-74
2022/10/30 01:57:35;;;;;;;;;;;;;;;;;;941052;27;19922;-75
2022/10/30 01:58:07;;;;;;;;;;;;;;;;;;941100;27;19907;-74
2022/10/30 01:58:41;;;;;;;;;;;;;;;;;;940979;27;19922;-74
2022/10/30 01:59:17;;;;;;;;;;;;;;;;;;941018;27;19908;-74
2022/10/30 01:59:50;;;;;;;;;;;;;;;;;;941017;27;20212;-75
2022/10/30 02:00:21;;;;;;;;;;;;;;;;;;940941;27;19915;-74
2022/10/30 02:00:56;;;;;;;;;;;;;;;;;;941065;27;19915;-74
2022/10/30 02:01:28;;;;;;;;;;;;;;;;;;941004;27;19918;-76
2022/10/30 02:01:59;;;;;;;;;;;;;;;;;;941144;27;20117;-74
2022/10/30 02:02:32;;;;;;;;;;;;;;;;;;941171;27;19918;-75
2022/10/30 02:03:04;;;;;;;;;;;;;;;;;;941019;27;19908;-75
2022/10/30 02:03:35;;;;;;;;;;;;;;;;;;941043;27;20140;-75
2022/10/30 02:04:09;;;;;;;;;;;;;;;;;;941027;27;19915;-75
2022/10/30 02:04:40;;;;;;;;;;;;;;;;;;941115;27;19907;-75
2022/10/30 02:05:13;;;;;;;;;;;;;;;;;;940988;27;20298;-74
2022/10/30 02:05:49;;;;;;;;;;;;;;;;;;941069;27;19922;-74
2022/10/30 02:06:20;;;;;;;;;;;;;;;;;;941037;27;19908;-74
2022/10/30 02:06:50;;;;;;;;;;;;;;;;;;941025;27;19918;-74
2022/10/30 02:07:24;;;;;;;;;;;;;;;;;;941138;27;19908;-75
2022/10/30 02:07:57;;;;;;;;;;;;;;;;;;941067;27;19908;-74
2022/10/30 02:08:28;;;;;;;;;;;;;;;;;;941067;27;19911;-74
2022/10/30 02:08:58;;;;;;;;;;;;;;;;;;941069;27;20251;-75
2022/10/30 02:09:32;;;;;;;;;;;;;;;;;;941033;27;19984;-74
2022/10/30 02:10:03;;;;;;;;;;;;;;;;;;941041;27;19911;-75
2022/10/30 02:10:34;;;;;;;;;;;;;;;;;;940711;27;19935;-74
2022/10/30 02:11:05;;;;;;;;;;;;;;;;;;941122;27;20366;-75
2022/10/30 02:11:40;;;;;;;;;;;;;;;;;;941041;27;20222;-74
2022/10/30 02:12:10;;;;;;;;;;;;;;;;;;941032;27;19962;-74
2022/10/30 02:12:41;;;;;;;;;;;;;;;;;;941116;27;19915;-75
2022/10/30 02:13:14;;;;;;;;;;;;;;;;;;941049;27;19915;-75
2022/10/30 02:13:45;;;;;;;;;;;;;;;;;;941191;27;19907;-75
2022/10/30 02:14:18;;;;;;;;;;;;;;;;;;941107;27;19914;-75
2022/10/30 02:14:53;;;;;;;;;;;;;;;;;;941086;27;19921;-74
2022/10/30 02:15:24;;;;;;;;;;;;;;;;;;940994;27;19907;-75
2022/10/30 02:15:55;;;;;;;;;;;;;;;;;;941041;27;19907;-75
2022/10/30 02:16:29;;;;;;;;;;;;;;;;;;941155;27;20187;-74
2022/10/30 02:17:01;;;;;;;;;;;;;;;;;;941149;27;20235;-75
2022/10/30 02:17:33;;;;;;;;;;;;;;;;;;941137;27;19918;-74
2022/10/30 02:18:06;;;;;;;;;;;;;;;;;;941021;27;19907;-73
2022/10/30 02:18:37;;;;;;;;;;;;;;;;;;941071;27;19911;-74
2022/10/30 02:19:07;;;;;;;;;;;;;;;;;;941171;27;19907;-75
2022/10/30 02:19:41;;;;;;;;;;;;;;;;;;941031;27;19922;-74
2022/10/30 02:20:18;;;;;;;;;;;;;;;;;;941086;27;19919;-75
2022/10/30 02:20:48;;;;;;;;;;;;;;;;;;941095;27;19922;-75
2022/10/30 02:21:22;;;;;;;;;;;;;;;;;;941073;27;20191;-76
2022/10/30 02:21:52;;;;;;;;;;;;;;;;;;941052;27;19918;-74
2022/10/30 02:22:23;;;;;;;;;;;;;;;;;;940940;27;20140;-73
2022/10/30 02:22:57;;;;;;;;;;;;;;;;;;941096;27;19911;-74
2022/10/30 02:23:27;;;;;;;;;;;;;;;;;;941017;27;20243;-74
2022/10/30 02:23:58;;;;;;;;;;;;;;;;;;941040;27;19907;-75
2022/10/30 02:24:31;;;;;;;;;;;;;;;;;;941074;27;19925;-74
2022/10/30 02:25:02;;;;;;;;;;;;;;;;;;941049;27;19918;-74
2022/10/30 02:25:33;;;;;;;;;;;;;;;;;;941123;27;19958;-74
2022/10/30 02:26:06;;;;;;;;;;;;;;;;;;941023;27;19930;-75
2022/10/30 02:26:37;;;;;;;;;;;;;;;;;;941051;27;19907;-74
2022/10/30 02:27:08;;;;;;;;;;;;;;;;;;941109;27;19908;-75
2022/10/30 02:27:42;;;;;;;;;;;;;;;;;;941105;27;19927;-75
2022/10/30 02:28:12;;;;;;;;;;;;;;;;;;941152;27;19918;-75
2022/10/30 02:28:43;;;;;;;;;;;;;;;;;;941099;27;19923;-75
2022/10/30 02:29:19;;;;;;;;;;;;;;;;;;941063;27;19907;-74
2022/10/30 02:29:50;;;;;;;;;;;;;;;;;;941250;27;20242;-75
2022/10/30 02:30:20;;;;;;;;;;;;;;;;;;941089;27;19919;-75
2022/10/30 02:30:54;;;;;;;;;;;;;;;;;;941057;27;19915;-74
2022/10/30 02:31:24;;;;;;;;;;;;;;;;;;941087;27;19918;-75
2022/10/30 02:31:55;;;;;;;;;;;;;;;;;;941082;27;19949;-75
2022/10/30 02:32:28;;;;;;;;;;;;;;;;;;941131;27;20266;-75
2022/10/30 02:32:59;;;;;;;;;;;;;;;;;;941172;27;19907;-74
2022/10/30 02:33:29;;;;;;;;;;;;;;;;;;941218;27;19908;-75
2022/10/30 02:34:03;;;;;;;;;;;;;;;;;;940989;27;19911;-75
2022/10/30 02:34:33;;;;;;;;;;;;;;;;;;941088;27;19919;-75
2022/10/30 02:35:05;;;;;;;;;;;;;;;;;;941013;27;19908;-75
2022/10/30 02:35:38;;;;;;;;;;;;;;;;;;941021;27;20210;-75
2022/10/30 02:36:14;;;;;;;;;;;;;;;;;;941105;27;19907;-76
2022/10/30 02:36:44;;;;;;;;;;;;;;;;;;941181;27;19907;-75
2022/10/30 02:37:15;;;;;;;;;;;;;;;;;;941181;27;19912;-75
2022/10/30 02:37:49;;;;;;;;;;;;;;;;;;940960;27;19922;-75
2022/10/30 02:38:19;;;;;;;;;;;;;;;;;;941045;27;19907;-75
2022/10/30 02:38:50;;;;;;;;;;;;;;;;;;941131;27;19907;-74
2022/10/30 02:39:23;;;;;;;;;;;;;;;;;;941073;27;19911;-74
2022/10/30 02:39:54;;;;;;;;;;;;;;;;;;940984;27;19928;-75
2022/10/30 02:40:25;;;;;;;;;;;;;;;;;;941034;27;19919;-74
2022/10/30 02:40:59;;;;;;;;;;;;;;;;;;940931;27;19919;-74
2022/10/30 02:41:30;;;;;;;;;;;;;;;;;;940910;27;20163;-74
2022/10/30 02:42:01;;;;;;;;;;;;;;;;;;940948;27;19911;-74
2022/10/30 02:42:34;;;;;;;;;;;;;;;;;;940969;27;20221;-74
2022/10/30 02:43:04;;;;;;;;;;;;;;;;;;940983;27;19903;-75
2022/10/30 02:43:35;;;;;;;;;;;;;;;;;;941139;27;19958;-74
2022/10/30 02:44:09;;;;;;;;;;;;;;;;;;941003;27;20255;-74
2022/10/30 02:44:39;;;;;;;;;;;;;;;;;;940973;27;20109;-75
2022/10/30 02:45:10;;;;;;;;;;;;;;;;;;941105;27;19907;-75
2022/10/30 02:45:43;;;;;;;;;;;;;;;;;;940917;27;19908;-74
2022/10/30 02:46:14;;;;;;;;;;;;;;;;;;940976;27;19907;-74
2022/10/30 02:46:45;;;;;;;;;;;;;;;;;;940952;27;19907;-74
2022/10/30 02:47:18;;;;;;;;;;;;;;;;;;941103;27;19911;-74
2022/10/30 02:47:48;;;;;;;;;;;;;;;;;;940972;27;19908;-75
2022/10/30 02:48:19;;;;;;;;;;;;;;;;;;941070;27;20117;-74
2022/10/30 02:48:52;;;;;;;;;;;;;;;;;;940940;27;19908;-74
2022/10/30 02:49:23;;;;;;;;;;;;;;;;;;940994;27;19907;-74
2022/10/30 02:49:54;;;;;;;;;;;;;;;;;;940941;27;20113;-74
2022/10/30 02:50:27;;;;;;;;;;;;;;;;;;940982;27;20136;-75
2022/10/30 02:51:01;;;;;;;;;;;;;;;;;;941117;27;19919;-74
2022/10/30 02:51:32;;;;;;;;;;;;;;;;;;940938;27;20010;-74
2022/10/30 02:52:05;;;;;;;;;;;;;;;;;;941083;27;19964;-74
2022/10/30 02:52:36;;;;;;;;;;;;;;;;;;941081;27;19918;-74
2022/10/30 02:53:06;;;;;;;;;;;;;;;;;;940945;27;19918;-75
2022/10/30 02:53:40;;;;;;;;;;;;;;;;;;941064;27;19915;-75
2022/10/30 02:54:10;;;;;;;;;;;;;;;;;;941020;27;19908;-75
2022/10/30 02:54:41;;;;;;;;;;;;;;;;;;940981;27;19947;-74
2022/10/30 02:55:14;;;;;;;;;;;;;;;;;;941037;27;20171;-75
2022/10/30 02:55:45;;;;;;;;;;;;;;;;;;941068;27;20256;-74
2022/10/30 02:56:16;;;;;;;;;;;;;;;;;;941008;27;19908;-74
2022/10/30 02:56:49;;;;;;;;;;;;;;;;;;941061;27;19926;-74
2022/10/30 02:57:20;;;;;;;;;;;;;;;;;;941050;27;20209;-74
2022/10/30 02:57:50;;;;;;;;;;;;;;;;;;941114;27;19961;-75
2022/10/30 02:58:21;;;;;;;;;;;;;;;;;;941011;27;19907;-75
2022/10/30 02:58:54;;;;;;;;;;;;;;;;;;940986;27;19916;-75
2022/10/30 02:59:25;;;;;;;;;;;;;;;;;;940943;27;19907;-74
2022/10/30 02:59:55;;;;;;;;;;;;;;;;;;940962;27;20262;-75
2022/10/30 03:00:29;;;;;;;;;;;;;;;;;;940975;27;19955;-74
2022/10/30 03:01:04;;;;;;;;;;;;;;;;;;940912;27;19914;-74
2022/10/30 03:01:34;;;;;;;;;;;;;;;;;;941023;27;19930;-75
2022/10/30 03:02:08;;;;;;;;;;;;;;;;;;940942;27;20208;-75
2022/10/30 03:02:38;;;;;;;;;;;;;;;;;;940900;27;19915;-74
2022/10/30 03:03:09;;;;;;;;;;;;;;;;;;940969;27;19908;-75
2022/10/30 03:03:43;;;;;;;;;;;;;;;;;;940932;27;20205;-75
2022/10/30 03:04:13;;;;;;;;;;;;;;;;;;940920;27;19908;-75
2022/10/30 03:04:44;;;;;;;;;;;;;;;;;;940984;27;19907;-74
2022/10/30 03:05:17;;;;;;;;;;;;;;;;;;940935;27;19915;-75
2022/10/30 03:05:48;;;;;;;;;;;;;;;;;;940987;27;19908;-74
2022/10/30 03:06:21;;;;;;;;;;;;;;;;;;940918;27;19912;-75
2022/10/30 03:06:55;;;;;;;;;;;;;;;;;;941001;27;19915;-74
2022/10/30 03:07:25;;;;;;;;;;;;;;;;;;940906;27;19911;-74
2022/10/30 03:07:56;;;;;;;;;;;;;;;;;;940945;27;19908;-74
2022/10/30 03:08:27;;;;;;;;;;;;;;;;;;940939;27;19907;-75
2022/10/30 03:09:00;;;;;;;;;;;;;;;;;;940849;27;20213;-74
2022/10/30 03:09:30;;;;;;;;;;;;;;;;;;940859;27;19907;-75
2022/10/30 03:10:01;;;;;;;;;;;;;;;;;;940931;27;19911;-75
2022/10/30 03:10:35;;;;;;;;;;;;;;;;;;940869;27;19912;-75
2022/10/30 03:11:06;;;;;;;;;;;;;;;;;;940946;27;19911;-75
2022/10/30 03:11:37;;;;;;;;;;;;;;;;;;940975;27;19959;-74
2022/10/30 03:12:10;;;;;;;;;;;;;;;;;;940989;27;20216;-74
2022/10/30 03:12:41;;;;;;;;;;;;;;;;;;940974;27;20151;-74
2022/10/30 03:13:12;;;;;;;;;;;;;;;;;;940879;27;19907;-75
2022/10/30 03:13:43;;;;;;;;;;;;;;;;;;940888;27;19923;-74
2022/10/30 03:14:16;;;;;;;;;;;;;;;;;;940906;27;20216;-74
2022/10/30 03:14:47;;;;;;;;;;;;;;;;;;940967;27;19907;-74
2022/10/30 03:15:18;;;;;;;;;;;;;;;;;;940937;27;19914;-74
2022/10/30 03:15:49;;;;;;;;;;;;;;;;;;940965;27;19918;-74
2022/10/30 03:16:23;;;;;;;;;;;;;;;;;;940895;27;20299;-74
2022/10/30 03:16:54;;;;;;;;;;;;;;;;;;940804;27;19917;-74
2022/10/30 03:17:24;;;;;;;;;;;;;;;;;;940908;27;20255;-74
2022/10/30 03:17:58;;;;;;;;;;;;;;;;;;940978;27;20167;-75
2022/10/30 03:18:28;;;;;;;;;;;;;;;;;;940853;27;20254;-75
2022/10/30 03:18:59;;;;;;;;;;;;;;;;;;940995;27;19918;-76
2022/10/30 03:19:32;;;;;;;;;;;;;;;;;;940825;27;19907;-75
2022/10/30 03:20:03;;;;;;;;;;;;;;;;;;940900;27;19907;-75
2022/10/30 03:20:34;;;;;;;;;;;;;;;;;;940816;27;19912;-75
2022/10/30 03:21:06;;;;;;;;;;;;;;;;;;940986;27;20280;-74
2022/10/30 03:21:42;;;;;;;;;;;;;;;;;;940906;27;19915;-74
2022/10/30 03:22:12;;;;;;;;;;;;;;;;;;940298;27;20171;-74
2022/10/30 03:22:45;;;;;;;;;;;;;;;;;;940834;27;19908;-74
2022/10/30 03:23:15;;;;;;;;;;;;;;;;;;940960;27;19916;-74
2022/10/30 03:23:49;;;;;;;;;;;;;;;;;;940948;27;20212;-74
2022/10/30 03:24:20;;;;;;;;;;;;;;;;;;940893;27;19926;-75
2022/10/30 03:24:50;;;;;;;;;;;;;;;;;;940980;27;20217;-74
2022/10/30 03:25:23;;;;;;;;;;;;;;;;;;941001;27;20221;-75
2022/10/30 03:25:55;;;;;;;;;;;;;;;;;;940943;27;20217;-74
2022/10/30 03:26:28;;;;;;;;;;;;;;;;;;940800;27;19956;-74
2022/10/30 03:26:59;;;;;;;;;;;;;;;;;;940861;27;19918;-76
2022/10/30 03:27:30;;;;;;;;;;;;;;;;;;940922;27;19919;-74
2022/10/30 03:28:01;;;;;;;;;;;;;;;;;;940858;27;19964;-74
2022/10/30 03:28:34;;;;;;;;;;;;;;;;;;940864;27;19915;-75
2022/10/30 03:29:05;;;;;;;;;;;;;;;;;;940825;27;19911;-74
2022/10/30 03:29:36;;;;;;;;;;;;;;;;;;940912;27;20117;-74
2022/10/30 03:30:10;;;;;;;;;;;;;;;;;;940863;27;19996;-75
2022/10/30 03:30:41;;;;;;;;;;;;;;;;;;940899;27;20121;-75
2022/10/30 03:31:12;;;;;;;;;;;;;;;;;;940923;27;19914;-75
2022/10/30 03:31:46;;;;;;;;;;;;;;;;;;940899;27;19960;-75
2022/10/30 03:32:16;;;;;;;;;;;;;;;;;;940841;27;19918;-75
2022/10/30 03:32:47;;;;;;;;;;;;;;;;;;940863;27;19950;-74
2022/10/30 03:33:17;;;;;;;;;;;;;;;;;;940822;27;19918;-75
2022/10/30 03:33:51;;;;;;;;;;;;;;;;;;940865;27;19914;-74
2022/10/30 03:34:21;;;;;;;;;;;;;;;;;;940869;27;19907;-74
2022/10/30 03:34:52;;;;;;;;;;;;;;;;;;940914;27;19912;-74
2022/10/30 03:35:25;;;;;;;;;;;;;;;;;;940862;27;19960;-75
2022/10/30 03:35:56;;;;;;;;;;;;;;;;;;940861;27;19907;-75
2022/10/30 03:36:27;;;;;;;;;;;;;;;;;;940874;27;19912;-74
2022/10/30 03:37:03;;;;;;;;;;;;;;;;;;940864;27;19918;-74
2022/10/30 03:37:33;;;;;;;;;;;;;;;;;;940774;27;19907;-74
2022/10/30 03:38:04;;;;;;;;;;;;;;;;;;940868;27;19919;-74
2022/10/30 03:38:35;;;;;;;;;;;;;;;;;;940911;27;20140;-74
2022/10/30 03:39:10;;;;;;;;;;;;;;;;;;940973;27;19960;-75
2022/10/30 03:39:40;;;;;;;;;;;;;;;;;;940898;27;19907;-74
2022/10/30 03:40:11;;;;;;;;;;;;;;;;;;940807;27;19908;-75
2022/10/30 03:40:44;;;;;;;;;;;;;;;;;;940857;27;19915;-75
2022/10/30 03:41:15;;;;;;;;;;;;;;;;;;940822;27;19908;-75
2022/10/30 03:41:46;;;;;;;;;;;;;;;;;;940868;27;19907;-75
2022/10/30 03:42:19;;;;;;;;;;;;;;;;;;940848;27;19915;-75
2022/10/30 03:42:49;;;;;;;;;;;;;;;;;;940871;27;19919;-75
2022/10/30 03:43:20;;;;;;;;;;;;;;;;;;940804;27;19911;-74
2022/10/30 03:43:53;;;;;;;;;;;;;;;;;;940846;27;19953;-74
2022/10/30 03:44:24;;;;;;;;;;;;;;;;;;940850;27;19907;-75
2022/10/30 03:44:55;;;;;;;;;;;;;;;;;;940836;27;20168;-75
2022/10/30 03:45:28;;;;;;;;;;;;;;;;;;940899;27;20205;-74
2022/10/30 03:45:58;;;;;;;;;;;;;;;;;;940864;27;20259;-74
2022/10/30 03:46:30;;;;;;;;;;;;;;;;;;940732;27;19908;-75
2022/10/30 03:47:03;;;;;;;;;;;;;;;;;;940953;27;20225;-74
2022/10/30 03:47:34;;;;;;;;;;;;;;;;;;940753;27;19907;-75
2022/10/30 03:48:05;;;;;;;;;;;;;;;;;;940814;27;20183;-75
2022/10/30 03:48:36;;;;;;;;;;;;;;;;;;940822;27;19911;-75
2022/10/30 03:49:09;;;;;;;;;;;;;;;;;;940821;27;19912;-75